createdAt,value
2023-03-26T00:01:39.517Z,5.03
2023-03-26T00:04:07.731Z,5.03
2023-03-26T00:06:39.471Z,5.07
2023-03-26T00:09:09.544Z,5.20
2023-03-26T00:11:36.513Z,4.33
2023-03-26T00:14:03.968Z,5.03
2023-03-26T00:16:32.611Z,5.13
2023-03-26T00:19:01.456Z,4.30
2023-03-26T00:21:30.542Z,4.77
2023-03-26T00:24:17.732Z,4.90
2023-03-26T00:26:48.557Z,3.90
2023-03-26T00:29:15.639Z,4.07
2023-03-26T00:31:46.611Z,3.87
2023-03-26T00:36:44.084Z,4.97
2023-03-26T00:39:11.119Z,4.60
2023-03-26T00:41:43.293Z,4.43
2023-03-26T00:44:10.955Z,4.77
2023-03-26T00:46:39.497Z,4.20
2023-03-26T00:49:10.987Z,5.57
2023-03-26T00:51:39.477Z,6.07
2023-03-26T00:54:09.908Z,4.80
2023-03-26T00:56:37.113Z,4.73
2023-03-26T00:59:04.425Z,4.93
2023-03-26T01:01:32.660Z,4.07
2023-03-26T01:04:27.567Z,5.07
2023-03-26T01:07:01.635Z,4.53
2023-03-26T01:09:34.839Z,4.03
2023-03-26T01:12:08.241Z,4.23
2023-03-26T01:14:36.323Z,4.17
2023-03-26T01:17:07.022Z,3.93
2023-03-26T01:19:53.293Z,5.07
2023-03-26T01:22:29.439Z,4.37
2023-03-26T01:24:56.985Z,3.87
2023-03-26T01:27:50.160Z,3.77
2023-03-26T01:30:43.594Z,3.87
2023-03-26T01:33:33.980Z,4.80
2023-03-26T01:36:16.913Z,3.97
2023-03-26T01:39:02.051Z,4.10
2023-03-26T01:41:49.137Z,5.00
2023-03-26T01:44:34.777Z,4.47
2023-03-26T01:47:05.430Z,4.60
2023-03-26T01:49:32.551Z,4.60
2023-03-26T01:51:59.652Z,4.90
2023-03-26T01:54:32.090Z,5.63
2023-03-26T01:57:21.684Z,4.80
2023-03-26T02:00:13.101Z,4.70
2023-03-26T02:03:18.026Z,5.13
2023-03-26T02:05:57.998Z,4.50
2023-03-26T02:08:26.043Z,4.37
2023-03-26T02:10:58.809Z,4.33
2023-03-26T02:13:28.005Z,4.47
2023-03-26T02:16:07.695Z,4.93
2023-03-26T02:18:39.048Z,5.37
2023-03-26T02:21:12.454Z,4.77
2023-03-26T02:23:47.072Z,5.03
2023-03-26T02:26:19.599Z,4.80
2023-03-26T02:28:48.594Z,5.40
2023-03-26T02:31:19.507Z,5.00
2023-03-26T02:33:47.826Z,4.67
2023-03-26T02:36:24.687Z,5.23
2023-03-26T02:38:55.847Z,4.03
2023-03-26T02:41:24.072Z,4.47
2023-03-26T02:43:52.082Z,4.60
2023-03-26T02:46:19.322Z,4.87
2023-03-26T02:48:49.965Z,4.33
2023-03-26T02:51:18.627Z,4.30
2023-03-26T02:53:47.738Z,4.40
2023-03-26T02:56:18.244Z,4.43
2023-03-26T02:58:46.959Z,4.93
2023-03-26T03:01:18.586Z,4.87
2023-03-26T03:03:47.608Z,5.33
2023-03-26T03:06:18.991Z,4.13
2023-03-26T03:08:47.535Z,4.70
2023-03-26T03:11:21.836Z,4.17
2023-03-26T03:13:55.001Z,5.50
2023-03-26T03:16:22.161Z,3.97
2023-03-26T03:18:54.793Z,3.77
2023-03-26T03:21:28.240Z,4.30
2023-03-26T03:24:00.124Z,4.07
2023-03-26T03:26:30.038Z,4.37
2023-03-26T03:28:58.646Z,4.30
2023-03-26T03:31:27.257Z,4.87
2023-03-26T03:33:55.456Z,4.30
2023-03-26T03:36:28.065Z,4.60
2023-03-26T03:39:02.562Z,5.03
2023-03-26T03:41:31.885Z,3.80
2023-03-26T03:43:59.963Z,3.93
2023-03-26T03:46:29.096Z,4.57
2023-03-26T03:48:56.127Z,4.50
2023-03-26T03:51:23.483Z,3.97
2023-03-26T03:53:55.942Z,4.03
2023-03-26T03:56:24.243Z,4.50
2023-03-26T03:58:53.208Z,4.13
2023-03-26T04:01:23.007Z,4.77
2023-03-26T04:04:00.135Z,4.17
2023-03-26T04:06:30.336Z,3.80
2023-03-26T04:09:00.408Z,4.63
2023-03-26T04:11:28.410Z,4.37
2023-03-26T04:13:58.617Z,4.13
2023-03-26T04:16:25.704Z,4.90
2023-03-26T04:18:52.649Z,4.13
2023-03-26T04:21:21.283Z,4.10
2023-03-26T04:23:51.251Z,3.77
2023-03-26T04:26:19.948Z,4.10
2023-03-26T04:28:54.408Z,4.20
2023-03-26T04:31:29.213Z,4.30
2023-03-26T04:34:05.686Z,3.77
2023-03-26T04:36:34.432Z,3.63
2023-03-26T04:39:04.997Z,3.83
2023-03-26T04:41:32.612Z,4.27
2023-03-26T04:44:02.097Z,4.07
2023-03-26T04:46:33.714Z,3.37
2023-03-26T04:49:01.738Z,3.13
2023-03-26T04:51:38.345Z,3.70
2023-03-26T04:54:07.359Z,3.70
2023-03-26T04:57:00.453Z,4.20
2023-03-26T04:59:34.847Z,3.73
2023-03-26T05:02:04.273Z,3.50
2023-03-26T05:04:34.094Z,3.37
2023-03-26T05:07:02.436Z,4.07
2023-03-26T05:09:30.820Z,3.80
2023-03-26T05:11:58.822Z,3.50
2023-03-26T05:14:25.973Z,4.50
2023-03-26T05:16:57.165Z,4.93
2023-03-26T05:19:25.557Z,3.73
2023-03-26T05:21:54.609Z,3.90
2023-03-26T05:24:25.038Z,4.17
2023-03-26T05:26:52.618Z,3.30
2023-03-26T05:29:24.389Z,3.53
2023-03-26T05:31:54.596Z,4.43
2023-03-26T05:34:26.541Z,3.90
2023-03-26T05:36:53.869Z,3.73
2023-03-26T05:39:27.715Z,3.90
2023-03-26T05:41:57.838Z,3.60
2023-03-26T05:44:26.997Z,3.50
2023-03-26T05:46:57.132Z,3.50
2023-03-26T05:49:24.177Z,4.33
2023-03-26T05:51:52.429Z,3.70
2023-03-26T05:54:21.754Z,4.20
2023-03-26T05:56:52.827Z,4.73
2023-03-26T05:59:19.936Z,4.07
2023-03-26T06:01:51.013Z,4.10
2023-03-26T06:04:18.372Z,3.73
2023-03-26T06:06:48.514Z,4.37
2023-03-26T06:09:17.055Z,4.57
2023-03-26T06:11:47.201Z,5.23
2023-03-26T06:14:16.370Z,4.10
2023-03-26T06:16:45.323Z,4.03
2023-03-26T06:19:12.441Z,4.20
2023-03-26T06:21:39.362Z,4.20
2023-03-26T06:24:06.971Z,4.47
2023-03-26T06:26:34.996Z,5.33
2023-03-26T06:29:05.452Z,5.23
2023-03-26T06:31:32.467Z,3.97
2023-03-26T06:34:02.587Z,4.50
2023-03-26T06:36:32.746Z,3.83
2023-03-26T06:39:07.800Z,3.77
2023-03-26T06:41:38.212Z,3.70
2023-03-26T06:44:08.350Z,4.33
2023-03-26T06:46:37.806Z,2.90
2023-03-26T06:49:06.389Z,3.13
2023-03-26T06:51:34.455Z,3.00
2023-03-26T06:54:04.645Z,3.20
2023-03-26T06:56:32.845Z,2.57
2023-03-26T06:59:02.876Z,2.77
2023-03-26T07:01:29.886Z,2.10
2023-03-26T07:04:00.104Z,2.20
2023-03-26T07:06:29.310Z,1.90
2023-03-26T07:08:58.754Z,1.50
2023-03-26T07:11:29.428Z,1.70
2023-03-26T07:13:59.720Z,1.37
2023-03-26T07:16:27.740Z,1.70
2023-03-26T07:18:56.729Z,1.63
2023-03-26T07:21:27.102Z,1.60
2023-03-26T07:23:57.538Z,1.30
2023-03-26T07:26:43.331Z,1.37
2023-03-26T07:29:26.792Z,1.87
2023-03-26T07:32:05.924Z,1.90
2023-03-26T07:34:46.294Z,1.67
2023-03-26T07:37:14.238Z,2.40
2023-03-26T07:39:58.766Z,2.00
2023-03-26T07:42:50.655Z,1.90
2023-03-26T07:45:24.496Z,1.87
2023-03-26T07:47:53.828Z,1.83
2023-03-26T07:50:24.097Z,1.60
2023-03-26T07:52:51.693Z,2.43
2023-03-26T07:55:19.566Z,1.90
2023-03-26T07:58:01.488Z,1.93
2023-03-26T08:00:47.037Z,1.97
2023-03-26T08:03:32.249Z,2.53
2023-03-26T08:06:28.744Z,1.80
2023-03-26T08:09:32.849Z,2.10
2023-03-26T08:12:31.096Z,1.80
2023-03-26T08:15:30.829Z,2.17
2023-03-26T08:18:27.754Z,2.47
2023-03-26T08:21:14.250Z,1.70
2023-03-26T08:24:06.489Z,1.70
2023-03-26T08:26:57.574Z,1.87
2023-03-26T08:29:45.304Z,2.03
2023-03-26T08:32:19.948Z,2.10
2023-03-26T08:34:47.301Z,1.93
2023-03-26T08:37:14.727Z,2.17
2023-03-26T08:39:42.540Z,2.23
2023-03-26T08:42:19.666Z,1.60
2023-03-26T08:45:03.745Z,2.37
2023-03-26T08:48:03.409Z,1.67
2023-03-26T08:51:01.823Z,2.23
2023-03-26T08:53:55.503Z,1.80
2023-03-26T08:57:10.133Z,1.67
2023-03-26T09:00:02.037Z,2.40
2023-03-26T09:02:37.544Z,2.43
2023-03-26T09:05:24.985Z,2.20
2023-03-26T09:08:17.828Z,2.27
2023-03-26T09:11:39.732Z,2.47
2023-03-26T09:14:43.045Z,2.57
2023-03-26T09:18:03.079Z,2.63
2023-03-26T09:20:55.258Z,2.87
2023-03-26T09:23:59.956Z,2.60
2023-03-26T09:27:01.513Z,2.80
2023-03-26T09:29:55.658Z,3.57
2023-03-26T09:32:47.441Z,3.43
2023-03-26T09:36:14.207Z,2.80
2023-03-26T09:38:43.852Z,2.50
2023-03-26T09:41:37.227Z,2.30
2023-03-26T09:44:24.154Z,2.73
2023-03-26T09:47:19.921Z,1.60
2023-03-26T09:50:01.787Z,1.73
2023-03-26T09:53:12.937Z,1.83
2023-03-26T09:56:04.844Z,2.20
2023-03-26T09:58:42.590Z,1.77
2023-03-26T10:01:32.156Z,2.00
2023-03-26T10:04:27.087Z,1.60
2023-03-26T10:07:16.280Z,2.00
2023-03-26T10:10:01.964Z,1.90
2023-03-26T10:12:33.835Z,1.50
2023-03-26T10:15:27.189Z,1.30
2023-03-26T10:18:27.104Z,1.80
2023-03-26T10:21:08.416Z,1.40
2023-03-26T10:24:06.094Z,1.50
2023-03-26T10:26:40.042Z,2.23
2023-03-26T10:29:36.201Z,1.70
2023-03-26T10:32:34.699Z,1.33
2023-03-26T10:35:23.881Z,1.70
2023-03-26T10:37:54.964Z,1.93
2023-03-26T10:40:43.865Z,1.60
2023-03-26T10:43:29.263Z,2.00
2023-03-26T10:46:27.684Z,1.70
2023-03-26T10:49:14.480Z,1.40
2023-03-26T10:51:50.499Z,1.47
2023-03-26T10:54:47.827Z,2.23
2023-03-26T10:57:40.845Z,1.60
2023-03-26T11:00:31.246Z,1.57
2023-03-26T11:03:12.999Z,1.40
2023-03-26T11:06:02.292Z,1.40
2023-03-26T11:08:33.422Z,1.30
2023-03-26T11:11:06.580Z,1.33
2023-03-26T11:13:46.701Z,0.90
2023-03-26T11:16:41.552Z,1.17
2023-03-26T11:19:22.024Z,1.63
2023-03-26T11:21:51.749Z,1.10
2023-03-26T11:24:32.124Z,1.40
2023-03-26T11:27:14.854Z,1.67
2023-03-26T11:29:43.276Z,1.60
2023-03-26T11:32:17.506Z,2.10
2023-03-26T11:35:02.524Z,1.37
2023-03-26T11:37:41.612Z,1.70
2023-03-26T11:40:21.584Z,1.90
2023-03-26T11:42:54.351Z,2.80
2023-03-26T11:45:28.109Z,2.37
2023-03-26T11:48:04.197Z,2.90
2023-03-26T11:50:35.234Z,1.97
2023-03-26T11:53:18.152Z,2.33
2023-03-26T11:55:58.878Z,1.83
2023-03-26T11:58:54.248Z,1.60
2023-03-26T12:01:41.248Z,1.73
2023-03-26T12:04:15.466Z,1.80
2023-03-26T12:07:07.198Z,2.00
2023-03-26T12:09:34.191Z,1.73
2023-03-26T12:12:04.670Z,1.93
2023-03-26T12:14:35.522Z,1.63
2023-03-26T12:17:14.460Z,2.00
2023-03-26T12:19:45.447Z,1.77
2023-03-26T12:22:43.596Z,1.50
2023-03-26T12:25:17.034Z,1.67
2023-03-26T12:28:05.158Z,1.83
2023-03-26T12:30:38.060Z,2.00
2023-03-26T12:33:29.453Z,1.60
2023-03-26T12:36:00.802Z,1.93
2023-03-26T12:38:34.004Z,1.90
2023-03-26T12:42:25.824Z,1.30
2023-03-26T12:44:52.813Z,1.07
2023-03-26T12:47:59.882Z,1.17
2023-03-26T12:50:34.708Z,1.50
2023-03-26T12:53:35.883Z,1.20
2023-03-26T12:56:27.330Z,1.50
2023-03-26T12:59:08.523Z,1.20
2023-03-26T13:01:47.631Z,1.83
2023-03-26T13:04:49.302Z,1.40
2023-03-26T13:07:52.108Z,1.57
2023-03-26T13:10:38.012Z,1.73
2023-03-26T13:13:18.780Z,1.87
2023-03-26T13:16:18.072Z,2.20
2023-03-26T13:18:53.068Z,4.00
2023-03-26T13:21:40.049Z,3.90
2023-03-26T13:24:08.115Z,4.87
2023-03-26T13:27:00.325Z,5.07
2023-03-26T13:29:56.728Z,4.30
2023-03-26T13:33:21.519Z,3.90
2023-03-26T13:36:23.837Z,5.00
2023-03-26T13:39:08.103Z,3.63
2023-03-26T13:41:57.488Z,4.63
2023-03-26T13:45:08.580Z,4.60
2023-03-26T13:47:42.595Z,4.83
2023-03-26T13:50:38.486Z,3.87
2023-03-26T13:53:13.420Z,4.10
2023-03-26T13:55:43.766Z,4.40
2023-03-26T13:58:17.630Z,4.50
2023-03-26T14:01:09.760Z,4.10
2023-03-26T14:04:02.309Z,3.60
2023-03-26T14:06:54.287Z,3.67
2023-03-26T14:09:36.369Z,4.50
2023-03-26T14:12:21.276Z,3.57
2023-03-26T14:15:05.707Z,3.87
2023-03-26T14:17:41.642Z,3.67
2023-03-26T14:20:47.725Z,4.07
2023-03-26T14:23:38.512Z,3.43
2023-03-26T14:26:21.722Z,2.90
2023-03-26T14:29:18.881Z,3.70
2023-03-26T14:32:06.481Z,3.83
2023-03-26T14:34:39.593Z,3.83
2023-03-26T14:37:30.499Z,3.60
2023-03-26T14:40:16.978Z,3.40
2023-03-26T14:42:57.612Z,3.97
2023-03-26T14:45:37.592Z,3.33
2023-03-26T14:48:41.889Z,3.73
2023-03-26T14:51:27.141Z,5.33
2023-03-26T14:54:02.848Z,3.53
2023-03-26T14:57:06.398Z,3.77
2023-03-26T15:00:07.344Z,2.90
2023-03-26T15:02:40.458Z,2.97
2023-03-26T15:05:47.194Z,3.57
2023-03-26T15:08:34.416Z,3.50
2023-03-26T15:11:39.161Z,2.80
2023-03-26T15:14:46.762Z,3.17
2023-03-26T15:17:34.535Z,2.80
2023-03-26T15:20:19.868Z,2.97
2023-03-26T15:23:00.988Z,1.90
2023-03-26T15:25:41.172Z,3.30
2023-03-26T15:28:42.771Z,2.80
2023-03-26T15:31:22.071Z,3.47
2023-03-26T15:34:07.870Z,2.70
2023-03-26T15:37:00.427Z,3.60
2023-03-26T15:40:07.695Z,4.10
2023-03-26T15:42:59.847Z,3.43
2023-03-26T15:45:51.475Z,3.60
2023-03-26T15:48:37.628Z,2.30
2023-03-26T15:51:32.157Z,3.03
2023-03-26T15:54:29.073Z,2.83
2023-03-26T15:57:17.353Z,3.13
2023-03-26T16:00:23.013Z,3.03
2023-03-26T16:03:15.038Z,2.13
2023-03-26T16:06:10.201Z,2.53
2023-03-26T16:08:54.779Z,2.20
2023-03-26T16:11:56.869Z,2.03
2023-03-26T16:14:42.287Z,3.17
2023-03-26T16:17:34.597Z,3.03
2023-03-26T16:20:31.596Z,2.00
2023-03-26T16:23:06.366Z,2.83
2023-03-26T16:25:36.198Z,2.47
2023-03-26T16:28:10.584Z,2.97
2023-03-26T16:30:39.190Z,3.00
2023-03-26T16:33:15.696Z,2.73
2023-03-26T16:35:44.809Z,2.77
2023-03-26T16:38:14.991Z,2.60
2023-03-26T16:41:02.271Z,2.70
2023-03-26T16:44:04.351Z,3.10
2023-03-26T16:47:06.302Z,3.30
2023-03-26T16:50:08.506Z,2.37
2023-03-26T16:52:55.165Z,2.60
2023-03-26T16:55:47.002Z,2.50
2023-03-26T16:58:22.698Z,2.40
2023-03-26T17:01:01.787Z,2.30
2023-03-26T17:03:49.280Z,2.67
2023-03-26T17:06:23.380Z,2.70
2023-03-26T17:09:25.026Z,2.67
2023-03-26T17:12:19.307Z,3.07
2023-03-26T17:15:19.219Z,2.80
2023-03-26T17:17:58.233Z,2.20
2023-03-26T17:20:33.431Z,3.57
2023-03-26T17:23:19.996Z,3.33
2023-03-26T17:26:01.429Z,2.17
2023-03-26T17:28:45.781Z,2.63
2023-03-26T17:31:35.506Z,2.23
2023-03-26T17:34:51.331Z,2.40
2023-03-26T17:37:26.482Z,2.17
2023-03-26T17:39:53.446Z,2.33
2023-03-26T17:42:28.432Z,2.80
2023-03-26T17:45:00.187Z,2.10
2023-03-26T17:47:49.962Z,2.60
2023-03-26T17:50:22.878Z,2.10
2023-03-26T17:53:02.159Z,3.23
2023-03-26T17:55:36.616Z,2.40
2023-03-26T17:58:24.027Z,2.70
2023-03-26T18:00:56.976Z,2.63
2023-03-26T18:03:44.436Z,3.07
2023-03-26T18:06:18.893Z,2.17
2023-03-26T18:09:12.148Z,3.13
2023-03-26T18:12:03.777Z,2.33
2023-03-26T18:14:47.778Z,1.80
2023-03-26T18:17:16.552Z,2.20
2023-03-26T18:19:53.500Z,2.27
2023-03-26T18:22:28.533Z,3.07
2023-03-26T18:25:01.565Z,2.80
2023-03-26T18:27:40.970Z,2.90
2023-03-26T18:30:20.996Z,2.70
2023-03-26T18:33:04.028Z,2.40
2023-03-26T18:35:45.182Z,2.30
2023-03-26T18:38:35.105Z,2.20
2023-03-26T18:41:15.393Z,2.20
2023-03-26T18:43:45.757Z,3.10
2023-03-26T18:46:17.157Z,2.03
2023-03-26T18:48:46.843Z,2.30
2023-03-26T18:51:23.196Z,1.90
2023-03-26T18:54:03.043Z,2.17
2023-03-26T18:56:43.324Z,2.70
2023-03-26T18:59:30.917Z,2.20
2023-03-26T19:02:07.543Z,2.17
2023-03-26T19:04:37.342Z,2.83
2023-03-26T19:07:11.937Z,2.33
2023-03-26T19:09:40.298Z,2.17
2023-03-26T19:12:23.267Z,2.20
2023-03-26T19:15:16.864Z,2.60
2023-03-26T19:17:55.956Z,2.30
2023-03-26T19:20:29.712Z,2.20
2023-03-26T19:22:59.270Z,2.30
2023-03-26T19:25:31.643Z,1.40
2023-03-26T19:28:01.899Z,1.73
2023-03-26T19:30:35.172Z,1.77
2023-03-26T19:33:13.886Z,1.40
2023-03-26T19:35:44.195Z,2.27
2023-03-26T19:38:37.907Z,3.03
2023-03-26T19:41:05.637Z,2.47
2023-03-26T19:43:34.669Z,2.60
2023-03-26T19:46:04.916Z,2.43
2023-03-26T19:48:46.150Z,2.20
2023-03-26T19:51:21.515Z,2.03
2023-03-26T19:53:53.878Z,1.53
2023-03-26T19:56:23.012Z,1.53
2023-03-26T19:58:50.901Z,2.00
2023-03-26T20:01:21.510Z,1.73
2023-03-26T20:03:52.833Z,2.33
2023-03-26T20:06:30.852Z,2.53
2023-03-26T20:09:02.003Z,2.63
2023-03-26T20:11:34.295Z,3.10
2023-03-26T20:14:02.088Z,3.70
2023-03-26T20:16:35.186Z,3.40
2023-03-26T20:19:04.305Z,2.77
2023-03-26T20:21:34.981Z,2.73
2023-03-26T20:24:18.043Z,1.90
2023-03-26T20:26:48.313Z,2.20
2023-03-26T20:29:16.307Z,3.00
2023-03-26T20:31:46.703Z,2.90
2023-03-26T20:34:23.524Z,4.13
2023-03-26T20:36:55.564Z,3.93
2023-03-26T20:39:23.879Z,2.80
2023-03-26T20:41:55.112Z,3.23
2023-03-26T20:44:23.541Z,3.30
2023-03-26T20:46:53.249Z,4.00
2023-03-26T20:49:22.237Z,2.90
2023-03-26T20:51:49.438Z,2.17
2023-03-26T20:54:24.648Z,1.97
2023-03-26T20:56:53.536Z,4.47
2023-03-26T20:59:27.023Z,3.60
2023-03-26T21:01:58.160Z,3.63
2023-03-26T21:04:27.140Z,4.70
2023-03-26T21:07:07.084Z,3.60
2023-03-26T21:09:42.342Z,2.60
2023-03-26T21:12:16.995Z,2.90
2023-03-26T21:14:47.415Z,2.60
2023-03-26T21:17:20.750Z,3.07
2023-03-26T21:19:48.473Z,2.80
2023-03-26T21:22:40.479Z,2.77
2023-03-26T21:25:41.707Z,2.70
2023-03-26T21:28:18.080Z,2.23
2023-03-26T21:30:47.169Z,2.57
2023-03-26T21:33:17.715Z,3.60
2023-03-26T21:35:45.296Z,3.97
2023-03-26T21:38:13.706Z,2.57
2023-03-26T21:40:46.997Z,2.87
2023-03-26T21:43:23.435Z,2.10
2023-03-26T21:45:54.934Z,3.10
2023-03-26T21:48:24.498Z,2.80
2023-03-26T21:50:51.717Z,2.30
2023-03-26T21:53:19.017Z,2.27
2023-03-26T21:56:18.635Z,2.20
2023-03-26T21:58:57.458Z,2.17
2023-03-26T22:01:51.291Z,2.00
2023-03-26T22:04:49.472Z,1.77
2023-03-26T22:07:23.316Z,2.00
2023-03-26T22:09:50.534Z,2.13
2023-03-26T22:12:20.611Z,1.73
2023-03-26T22:14:50.735Z,2.40
2023-03-26T22:17:20.142Z,1.90
2023-03-26T22:19:48.110Z,1.73
2023-03-26T22:22:15.198Z,1.73
2023-03-26T22:24:45.263Z,1.10
2023-03-26T22:27:16.182Z,1.00
2023-03-26T22:29:46.600Z,1.17
2023-03-26T22:32:13.916Z,0.97
2023-03-26T22:34:41.546Z,1.30
2023-03-26T22:37:08.554Z,1.50
2023-03-26T22:39:37.873Z,2.13
2023-03-26T22:42:05.191Z,2.07
2023-03-26T22:44:32.216Z,1.90
2023-03-26T22:46:59.333Z,2.17
2023-03-26T22:49:27.544Z,2.00
2023-03-26T22:51:55.040Z,1.67
2023-03-26T22:54:22.181Z,1.73
2023-03-26T22:56:49.271Z,1.20
2023-03-26T22:59:16.301Z,2.23
2023-03-26T23:01:44.301Z,2.30
2023-03-26T23:04:31.211Z,0.93
2023-03-26T23:07:02.231Z,1.60
2023-03-26T23:09:30.287Z,1.60
2023-03-26T23:12:00.640Z,1.30
2023-03-26T23:14:28.825Z,1.40
2023-03-26T23:16:58.394Z,1.30
2023-03-26T23:19:30.297Z,2.10
2023-03-26T23:21:59.297Z,1.53
2023-03-26T23:24:30.197Z,0.93
2023-03-26T23:26:59.200Z,1.80
2023-03-26T23:29:30.222Z,2.07
2023-03-26T23:31:59.951Z,1.30
2023-03-26T23:34:30.396Z,1.33
2023-03-26T23:36:58.212Z,1.37
2023-03-26T23:39:26.749Z,1.47
2023-03-26T23:41:55.725Z,1.93
2023-03-26T23:44:24.796Z,1.13
2023-03-26T23:46:58.068Z,1.50
2023-03-26T23:49:27.888Z,1.50
2023-03-26T23:51:54.943Z,1.90
2023-03-26T23:54:25.720Z,1.70
2023-03-26T23:56:59.528Z,1.60
2023-03-26T23:59:29.634Z,3.17
